createdAt,value
2023-04-26T00:01:07.401Z,65.05
2023-04-26T00:03:34.149Z,65.07
2023-04-26T00:06:03.714Z,65.22
2023-04-26T00:08:30.033Z,65.82
2023-04-26T00:10:56.432Z,65.37
2023-04-26T00:13:22.777Z,65.99
2023-04-26T00:15:49.107Z,66.88
2023-04-26T00:18:15.510Z,65.93
2023-04-26T00:20:42.025Z,66.35
2023-04-26T00:23:10.499Z,66.80
2023-04-26T00:25:37.325Z,66.26
2023-04-26T00:28:03.707Z,66.77
2023-04-26T00:30:30.109Z,66.94
2023-04-26T00:32:56.526Z,66.61
2023-04-26T00:35:22.965Z,67.46
2023-04-26T00:37:49.339Z,67.76
2023-04-26T00:40:17.186Z,67.96
2023-04-26T00:42:43.584Z,67.81
2023-04-26T00:45:10.059Z,67.53
2023-04-26T00:47:36.506Z,67.79
2023-04-26T00:50:03.643Z,67.71
2023-04-26T00:52:30.622Z,67.49
2023-04-26T00:54:57.094Z,67.58
2023-04-26T00:57:23.489Z,67.78
2023-04-26T00:59:49.905Z,68.33
2023-04-26T01:02:17.606Z,67.43
2023-04-26T01:04:45.308Z,67.68
2023-04-26T01:07:11.951Z,68.02
2023-04-26T01:09:38.346Z,66.79
2023-04-26T01:12:05.004Z,68.00
2023-04-26T01:14:31.366Z,67.41
2023-04-26T01:16:57.867Z,67.33
2023-04-26T01:19:25.546Z,67.38
2023-04-26T01:21:51.938Z,67.09
2023-04-26T01:24:18.322Z,67.24
2023-04-26T01:26:47.749Z,67.55
2023-04-26T01:29:14.730Z,67.28
2023-04-26T01:31:41.199Z,67.89
2023-04-26T01:34:07.551Z,67.76
2023-04-26T01:36:33.956Z,66.88
2023-04-26T01:39:00.498Z,67.23
2023-04-26T01:41:27.034Z,67.27
2023-04-26T01:43:53.595Z,67.13
2023-04-26T01:46:20.331Z,67.06
2023-04-26T01:48:47.254Z,66.99
2023-04-26T01:51:13.773Z,67.00
2023-04-26T01:53:40.256Z,66.97
2023-04-26T01:56:06.783Z,66.80
2023-04-26T01:58:33.164Z,67.86
2023-04-26T02:01:06.214Z,67.76
2023-04-26T02:03:32.614Z,67.13
2023-04-26T02:05:59.044Z,67.06
2023-04-26T02:08:25.428Z,67.56
2023-04-26T02:10:51.752Z,67.82
2023-04-26T02:13:19.396Z,68.07
2023-04-26T02:15:49.219Z,67.79
2023-04-26T02:18:15.829Z,67.63
2023-04-26T02:20:45.753Z,67.96
2023-04-26T02:23:12.512Z,67.58
2023-04-26T02:25:38.887Z,67.86
2023-04-26T02:28:05.875Z,67.94
2023-04-26T02:30:32.324Z,67.73
2023-04-26T02:32:59.005Z,68.12
2023-04-26T02:35:25.439Z,68.34
2023-04-26T02:37:52.366Z,67.93
2023-04-26T02:40:19.113Z,68.09
2023-04-26T02:42:45.525Z,67.92
2023-04-26T02:45:12.180Z,68.44
2023-04-26T02:47:38.788Z,68.26
2023-04-26T02:50:09.058Z,68.19
2023-04-26T02:52:36.111Z,68.65
2023-04-26T02:55:05.733Z,68.62
2023-04-26T02:57:32.314Z,68.46
2023-04-26T02:59:58.967Z,68.48
2023-04-26T03:02:25.707Z,68.33
2023-04-26T03:04:52.254Z,68.38
2023-04-26T03:07:18.627Z,68.58
2023-04-26T03:09:44.943Z,68.93
2023-04-26T03:12:11.778Z,69.20
2023-04-26T03:14:38.175Z,69.32
2023-04-26T03:17:04.527Z,69.58
2023-04-26T03:19:30.871Z,69.42
2023-04-26T03:21:57.341Z,68.96
2023-04-26T03:24:23.877Z,69.20
2023-04-26T03:26:52.580Z,69.30
2023-04-26T03:29:19.785Z,69.68
2023-04-26T03:31:46.195Z,69.27
2023-04-26T03:34:12.651Z,69.76
2023-04-26T03:36:39.054Z,69.14
2023-04-26T03:39:06.240Z,68.66
2023-04-26T03:41:33.557Z,69.46
2023-04-26T03:44:00.016Z,69.73
2023-04-26T03:46:26.537Z,69.72
2023-04-26T03:48:53.226Z,69.72
2023-04-26T03:51:19.828Z,69.60
2023-04-26T03:53:48.621Z,69.15
2023-04-26T03:56:14.952Z,69.08
2023-04-26T03:58:42.154Z,69.91
2023-04-26T04:01:08.764Z,69.31
2023-04-26T04:03:35.830Z,69.04
2023-04-26T04:06:03.805Z,69.23
2023-04-26T04:08:30.582Z,70.15
2023-04-26T04:10:56.990Z,68.88
2023-04-26T04:13:23.353Z,69.47
2023-04-26T04:15:49.766Z,69.33
2023-04-26T04:18:16.202Z,69.19
2023-04-26T04:20:42.595Z,68.63
2023-04-26T04:23:09.881Z,69.22
2023-04-26T04:25:36.642Z,69.94
2023-04-26T04:28:03.448Z,69.25
2023-04-26T04:30:30.642Z,69.65
2023-04-26T04:33:00.880Z,69.81
2023-04-26T04:35:29.182Z,68.79
2023-04-26T04:37:58.550Z,69.19
2023-04-26T04:40:25.557Z,69.40
2023-04-26T04:42:53.567Z,68.87
2023-04-26T04:45:54.182Z,69.58
2023-04-26T04:48:21.352Z,69.85
2023-04-26T04:50:47.902Z,69.85
2023-04-26T04:53:14.363Z,69.55
2023-04-26T04:55:41.122Z,69.33
2023-04-26T04:58:07.496Z,69.36
2023-04-26T05:00:34.212Z,69.32
2023-04-26T05:03:00.854Z,68.87
2023-04-26T05:05:27.517Z,69.51
2023-04-26T05:07:53.868Z,69.43
2023-04-26T05:10:20.253Z,69.59
2023-04-26T05:12:46.599Z,69.61
2023-04-26T05:15:12.969Z,69.33
2023-04-26T05:17:39.396Z,69.13
2023-04-26T05:20:07.923Z,70.05
2023-04-26T05:22:36.899Z,69.15
2023-04-26T05:25:04.601Z,69.40
2023-04-26T05:27:31.076Z,70.14
2023-04-26T05:29:57.469Z,70.43
2023-04-26T05:32:23.836Z,68.93
2023-04-26T05:34:50.166Z,69.66
2023-04-26T05:37:17.197Z,69.49
2023-04-26T05:39:44.287Z,69.88
2023-04-26T05:42:10.709Z,69.04
2023-04-26T05:44:37.080Z,69.18
2023-04-26T05:47:03.636Z,68.39
2023-04-26T05:49:29.947Z,68.88
2023-04-26T05:51:58.798Z,68.74
2023-04-26T05:54:25.180Z,68.68
2023-04-26T05:56:51.533Z,67.15
2023-04-26T05:59:17.932Z,67.07
2023-04-26T06:01:44.379Z,66.53
2023-04-26T06:04:11.110Z,67.37
2023-04-26T06:06:38.027Z,67.39
2023-04-26T06:09:04.712Z,66.38
2023-04-26T06:11:31.432Z,66.78
2023-04-26T06:13:57.777Z,67.39
2023-04-26T06:16:24.306Z,67.02
2023-04-26T06:18:50.940Z,67.41
2023-04-26T06:21:17.256Z,67.43
2023-04-26T06:23:43.643Z,67.06
2023-04-26T06:26:09.991Z,67.42
2023-04-26T06:28:36.438Z,67.36
2023-04-26T06:31:02.879Z,66.06
2023-04-26T06:33:29.245Z,66.53
2023-04-26T06:35:55.605Z,65.78
2023-04-26T06:38:21.978Z,64.13
2023-04-26T06:40:48.359Z,64.66
2023-04-26T06:43:14.715Z,64.14
2023-04-26T06:45:42.191Z,63.27
2023-04-26T06:48:09.992Z,63.63
2023-04-26T06:50:40.043Z,63.32
2023-04-26T06:53:07.013Z,63.18
2023-04-26T06:55:33.862Z,62.65
2023-04-26T06:58:00.383Z,62.20
2023-04-26T07:00:26.816Z,61.72
2023-04-26T07:02:53.267Z,62.08
2023-04-26T07:05:19.753Z,62.64
2023-04-26T07:07:46.199Z,62.57
2023-04-26T07:10:13.033Z,62.86
2023-04-26T07:12:39.498Z,62.43
2023-04-26T07:15:09.525Z,61.95
2023-04-26T07:17:36.234Z,62.16
2023-04-26T07:20:02.964Z,62.68
2023-04-26T07:22:29.413Z,61.61
2023-04-26T07:24:55.873Z,61.90
2023-04-26T07:27:22.246Z,61.57
2023-04-26T07:29:48.925Z,62.87
2023-04-26T07:32:15.410Z,62.89
2023-04-26T07:34:41.960Z,61.85
2023-04-26T07:37:08.367Z,62.25
2023-04-26T07:39:35.204Z,62.22
2023-04-26T07:42:01.656Z,62.21
2023-04-26T07:44:28.184Z,62.21
2023-04-26T07:46:54.591Z,61.58
2023-04-26T07:49:20.989Z,60.64
2023-04-26T07:51:48.894Z,61.57
2023-04-26T07:54:15.260Z,62.63
2023-04-26T07:56:41.678Z,63.20
2023-04-26T07:59:08.488Z,62.60
2023-04-26T08:01:34.835Z,61.83
2023-04-26T08:04:01.978Z,62.70
2023-04-26T08:06:29.371Z,62.63
2023-04-26T08:08:56.301Z,61.98
2023-04-26T08:11:22.874Z,62.16
2023-04-26T08:13:49.350Z,63.21
2023-04-26T08:16:15.959Z,64.08
2023-04-26T08:18:44.084Z,64.13
2023-04-26T08:21:12.670Z,63.94
2023-04-26T08:23:39.215Z,63.90
2023-04-26T08:26:06.749Z,64.54
2023-04-26T08:28:33.305Z,64.72
2023-04-26T08:30:59.722Z,65.36
2023-04-26T08:33:26.327Z,65.96
2023-04-26T08:35:52.832Z,65.30
2023-04-26T08:38:19.258Z,66.08
2023-04-26T08:40:46.074Z,65.60
2023-04-26T08:43:12.573Z,65.46
2023-04-26T08:45:39.673Z,65.51
2023-04-26T08:48:07.258Z,65.14
2023-04-26T08:50:33.794Z,64.69
2023-04-26T08:53:00.201Z,64.99
2023-04-26T08:55:26.692Z,64.82
2023-04-26T08:57:53.057Z,64.82
2023-04-26T09:00:19.770Z,65.95
2023-04-26T09:02:47.396Z,65.64
2023-04-26T09:05:14.367Z,65.95
2023-04-26T09:07:47.534Z,65.91
2023-04-26T09:10:14.648Z,65.77
2023-04-26T09:12:41.255Z,66.11
2023-04-26T09:15:07.936Z,66.34
2023-04-26T09:17:36.670Z,65.51
2023-04-26T09:20:17.674Z,66.44
2023-04-26T09:22:44.064Z,67.01
2023-04-26T09:25:11.286Z,66.96
2023-04-26T09:27:39.111Z,67.35
2023-04-26T09:30:07.707Z,66.42
2023-04-26T09:32:51.203Z,66.53
2023-04-26T09:35:28.082Z,66.93
2023-04-26T09:38:00.324Z,67.27
2023-04-26T09:40:29.573Z,67.23
2023-04-26T09:42:59.051Z,67.79
2023-04-26T09:45:26.258Z,67.83
2023-04-26T09:47:52.763Z,67.77
2023-04-26T09:50:26.074Z,67.81
2023-04-26T09:52:52.448Z,67.49
2023-04-26T09:55:34.993Z,67.84
2023-04-26T09:58:11.414Z,68.34
2023-04-26T10:00:38.536Z,69.56
2023-04-26T10:03:05.807Z,69.62
2023-04-26T10:05:34.003Z,70.64
2023-04-26T10:08:00.713Z,71.71
2023-04-26T10:10:27.235Z,71.50
2023-04-26T10:12:53.557Z,72.44
2023-04-26T10:15:19.977Z,71.90
2023-04-26T10:17:46.458Z,72.40
2023-04-26T10:20:13.386Z,72.26
2023-04-26T10:22:41.137Z,72.26
2023-04-26T10:25:09.063Z,71.99
2023-04-26T10:27:45.094Z,71.65
2023-04-26T10:30:13.874Z,70.15
2023-04-26T10:32:53.083Z,68.81
2023-04-26T10:35:20.085Z,68.26
2023-04-26T10:38:01.907Z,67.78
2023-04-26T10:40:39.087Z,67.04
2023-04-26T10:43:11.973Z,66.19
2023-04-26T10:45:38.667Z,65.99
2023-04-26T10:48:21.400Z,65.40
2023-04-26T10:51:08.297Z,65.91
2023-04-26T10:53:34.641Z,63.53
2023-04-26T10:56:01.015Z,64.53
2023-04-26T10:58:30.529Z,64.04
2023-04-26T11:01:13.402Z,65.00
2023-04-26T11:03:43.720Z,64.82
2023-04-26T11:06:13.698Z,64.55
2023-04-26T11:08:40.082Z,64.32
2023-04-26T11:11:15.561Z,64.04
2023-04-26T11:13:42.512Z,64.19
2023-04-26T11:16:09.838Z,64.54
2023-04-26T11:18:37.064Z,64.81
2023-04-26T11:21:03.768Z,64.57
2023-04-26T11:23:30.398Z,64.02
2023-04-26T11:26:00.347Z,66.30
2023-04-26T11:28:26.786Z,65.76
2023-04-26T11:30:53.168Z,65.43
2023-04-26T11:33:22.137Z,65.13
2023-04-26T11:35:52.141Z,64.24
2023-04-26T11:38:18.893Z,63.54
2023-04-26T11:40:45.510Z,62.74
2023-04-26T11:43:13.776Z,62.21
2023-04-26T11:45:40.271Z,62.02
2023-04-26T11:48:08.737Z,60.49
2023-04-26T11:50:35.301Z,59.25
2023-04-26T11:53:02.601Z,57.72
2023-04-26T11:55:30.496Z,57.01
2023-04-26T11:57:57.327Z,54.58
2023-04-26T12:00:25.808Z,51.39
2023-04-26T12:02:53.266Z,51.08
2023-04-26T12:05:23.717Z,48.21
2023-04-26T12:07:51.572Z,47.65
2023-04-26T12:10:18.543Z,46.38
2023-04-26T12:12:47.650Z,44.60
2023-04-26T12:15:15.611Z,43.21
2023-04-26T12:17:51.646Z,44.87
2023-04-26T12:20:18.365Z,45.34
2023-04-26T12:23:03.764Z,45.09
2023-04-26T12:25:30.382Z,45.90
2023-04-26T12:27:57.060Z,44.07
2023-04-26T12:30:23.771Z,44.79
2023-04-26T12:32:50.223Z,45.73
2023-04-26T12:35:16.782Z,44.97
2023-04-26T12:37:43.409Z,46.51
2023-04-26T12:40:10.524Z,47.54
2023-04-26T12:42:37.321Z,48.64
2023-04-26T12:45:04.021Z,48.51
2023-04-26T12:47:31.372Z,47.37
2023-04-26T12:50:01.127Z,47.05
2023-04-26T12:52:28.163Z,45.42
2023-04-26T12:54:54.515Z,44.88
2023-04-26T12:57:21.774Z,44.80
2023-04-26T12:59:50.438Z,45.14
2023-04-26T13:02:17.175Z,43.66
2023-04-26T13:04:43.919Z,41.37
2023-04-26T13:07:10.890Z,41.21
2023-04-26T13:09:37.264Z,41.89
2023-04-26T13:12:04.111Z,41.80
2023-04-26T13:14:30.543Z,41.19
2023-04-26T13:16:56.960Z,42.37
2023-04-26T13:19:24.110Z,41.87
2023-04-26T13:21:52.430Z,38.41
2023-04-26T13:24:19.688Z,38.06
2023-04-26T13:26:46.146Z,38.50
2023-04-26T13:29:12.669Z,38.97
2023-04-26T13:31:40.024Z,38.67
2023-04-26T13:34:07.099Z,39.81
2023-04-26T13:36:33.680Z,40.20
2023-04-26T13:39:00.183Z,38.38
2023-04-26T13:41:26.728Z,40.24
2023-04-26T13:43:53.369Z,39.55
2023-04-26T13:46:19.820Z,40.14
2023-04-26T13:48:46.312Z,41.85
2023-04-26T13:51:12.778Z,42.14
2023-04-26T13:53:39.297Z,42.10
2023-04-26T13:56:05.821Z,41.72
2023-04-26T13:58:32.349Z,41.77
2023-04-26T14:00:58.696Z,41.90
2023-04-26T14:03:26.646Z,42.69
2023-04-26T14:05:53.295Z,41.69
2023-04-26T14:08:19.658Z,40.81
2023-04-26T14:10:46.088Z,39.83
2023-04-26T14:13:12.794Z,39.11
2023-04-26T14:15:39.153Z,38.74
2023-04-26T14:18:05.673Z,38.68
2023-04-26T14:20:33.174Z,38.48
2023-04-26T14:22:59.570Z,38.51
2023-04-26T14:25:27.108Z,37.93
2023-04-26T14:27:53.831Z,37.75
2023-04-26T14:30:20.899Z,37.58
2023-04-26T14:32:47.360Z,38.40
2023-04-26T14:35:13.850Z,38.80
2023-04-26T14:37:42.888Z,37.81
2023-04-26T14:40:09.394Z,37.39
2023-04-26T14:42:36.304Z,38.46
2023-04-26T14:45:02.694Z,38.74
2023-04-26T14:47:29.459Z,37.33
2023-04-26T14:49:56.900Z,38.15
2023-04-26T14:52:27.012Z,38.52
2023-04-26T14:54:53.613Z,38.83
2023-04-26T14:57:19.983Z,37.66
2023-04-26T14:59:46.422Z,37.61
2023-04-26T15:02:12.889Z,38.30
2023-04-26T15:04:39.513Z,38.41
2023-04-26T15:07:06.566Z,39.94
2023-04-26T15:09:32.964Z,40.78
2023-04-26T15:11:59.489Z,41.22
2023-04-26T15:14:26.080Z,41.29
2023-04-26T15:16:52.450Z,40.76
2023-04-26T15:19:19.074Z,40.86
2023-04-26T15:21:45.449Z,40.74
2023-04-26T15:24:11.820Z,41.72
2023-04-26T15:26:38.313Z,42.00
2023-04-26T15:29:04.827Z,41.45
2023-04-26T15:31:31.427Z,42.41
2023-04-26T15:33:58.511Z,41.89
2023-04-26T15:36:24.898Z,41.43
2023-04-26T15:38:51.819Z,41.26
2023-04-26T15:41:18.206Z,44.12
2023-04-26T15:43:44.575Z,41.74
2023-04-26T15:46:13.168Z,42.09
2023-04-26T15:48:41.423Z,43.26
2023-04-26T15:51:07.779Z,41.78
2023-04-26T15:53:34.158Z,42.61
2023-04-26T15:56:01.236Z,42.43
2023-04-26T15:58:27.581Z,44.70
2023-04-26T16:00:53.935Z,45.73
2023-04-26T16:03:20.700Z,46.63
2023-04-26T16:05:48.006Z,46.93
2023-04-26T16:08:17.658Z,46.80
2023-04-26T16:10:50.901Z,46.67
2023-04-26T16:13:17.526Z,46.34
2023-04-26T16:15:45.370Z,47.33
2023-04-26T16:18:11.870Z,47.04
2023-04-26T16:20:38.251Z,47.14
2023-04-26T16:23:04.600Z,47.54
2023-04-26T16:25:31.764Z,46.63
2023-04-26T16:27:58.209Z,46.47
2023-04-26T16:30:24.569Z,47.52
2023-04-26T16:32:51.848Z,46.09
2023-04-26T16:35:18.283Z,45.37
2023-04-26T16:37:44.803Z,45.11
2023-04-26T16:40:11.570Z,46.01
2023-04-26T16:42:41.960Z,45.83
2023-04-26T16:45:08.666Z,46.15
2023-04-26T16:47:35.092Z,46.14
2023-04-26T16:50:02.144Z,46.66
2023-04-26T16:52:28.532Z,47.08
2023-04-26T16:54:54.985Z,46.86
2023-04-26T16:57:21.346Z,47.27
2023-04-26T16:59:47.805Z,46.45
2023-04-26T17:02:14.279Z,47.49
2023-04-26T17:04:41.305Z,47.54
2023-04-26T17:07:07.817Z,47.75
2023-04-26T17:09:34.901Z,48.10
2023-04-26T17:12:02.855Z,47.95
2023-04-26T17:14:29.205Z,48.06
2023-04-26T17:16:55.630Z,48.62
2023-04-26T17:19:21.981Z,48.66
2023-04-26T17:21:48.542Z,48.59
2023-04-26T17:24:14.978Z,49.07
2023-04-26T17:26:41.874Z,49.27
2023-04-26T17:29:08.219Z,49.52
2023-04-26T17:31:34.631Z,49.49
2023-04-26T17:34:03.290Z,49.64
2023-04-26T17:36:31.912Z,50.12
2023-04-26T17:38:58.279Z,50.28
2023-04-26T17:41:24.641Z,50.96
2023-04-26T17:43:51.035Z,49.91
2023-04-26T17:46:17.406Z,49.88
2023-04-26T17:48:43.799Z,50.64
2023-04-26T17:51:10.364Z,50.06
2023-04-26T17:53:36.809Z,50.28
2023-04-26T17:56:07.161Z,50.72
2023-04-26T17:58:33.978Z,50.68
2023-04-26T18:01:00.578Z,50.81
2023-04-26T18:03:29.608Z,50.89
2023-04-26T18:05:56.145Z,51.38
2023-04-26T18:08:22.539Z,51.54
2023-04-26T18:10:50.413Z,51.40
2023-04-26T18:13:16.946Z,51.67
2023-04-26T18:15:43.453Z,52.45
2023-04-26T18:18:10.132Z,52.69
2023-04-26T18:20:39.228Z,52.88
2023-04-26T18:23:05.593Z,53.22
2023-04-26T18:25:31.938Z,53.43
2023-04-26T18:27:58.281Z,53.29
2023-04-26T18:30:24.653Z,53.52
2023-04-26T18:32:51.471Z,53.80
2023-04-26T18:35:17.873Z,53.21
2023-04-26T18:37:44.321Z,53.58
2023-04-26T18:40:11.809Z,54.17
2023-04-26T18:42:38.888Z,53.65
2023-04-26T18:45:06.230Z,54.12
2023-04-26T18:47:32.650Z,53.77
2023-04-26T18:49:59.088Z,53.77
2023-04-26T18:52:25.468Z,54.31
2023-04-26T18:54:51.799Z,54.50
2023-04-26T18:57:22.125Z,54.95
2023-04-26T18:59:51.267Z,54.50
2023-04-26T19:05:43.095Z,55.43
2023-04-26T19:17:34.899Z,56.48
2023-04-26T19:20:01.239Z,55.91
2023-04-26T19:22:27.619Z,56.11
2023-04-26T19:24:54.024Z,56.10
2023-04-26T19:27:20.562Z,55.96
2023-04-26T19:29:47.011Z,56.21
2023-04-26T19:32:14.470Z,56.24
2023-04-26T19:34:41.373Z,55.41
2023-04-26T19:37:07.977Z,56.19
2023-04-26T19:39:34.534Z,56.34
2023-04-26T19:42:01.584Z,56.69
2023-04-26T19:44:27.988Z,56.13
2023-04-26T19:46:54.884Z,56.96
2023-04-26T19:49:21.984Z,57.10
2023-04-26T19:51:48.625Z,57.29
2023-04-26T19:54:17.043Z,58.31
2023-04-26T19:56:43.506Z,58.83
2023-04-26T19:59:35.331Z,59.41
2023-04-26T20:02:03.104Z,58.96
2023-04-26T20:04:29.600Z,59.30
2023-04-26T20:06:57.340Z,59.17
2023-04-26T20:09:23.714Z,59.44
2023-04-26T20:11:50.109Z,59.66
2023-04-26T20:14:16.575Z,60.16
2023-04-26T20:16:43.032Z,60.57
2023-04-26T20:19:10.253Z,60.54
2023-04-26T20:21:37.128Z,59.67
2023-04-26T20:24:04.133Z,60.47
2023-04-26T20:26:30.589Z,60.26
2023-04-26T20:28:57.412Z,60.27
2023-04-26T20:31:24.271Z,60.13
2023-04-26T20:33:50.723Z,60.27
2023-04-26T20:36:17.733Z,60.79
2023-04-26T20:38:44.174Z,60.25
2023-04-26T20:41:10.941Z,59.63
2023-04-26T20:43:37.332Z,60.80
2023-04-26T20:46:05.319Z,60.63
2023-04-26T20:48:31.688Z,59.84
2023-04-26T20:50:58.766Z,60.15
2023-04-26T20:53:25.162Z,59.65
2023-04-26T20:56:16.579Z,59.59
2023-04-26T20:58:42.966Z,60.53
2023-04-26T21:01:09.791Z,60.90
2023-04-26T21:03:36.491Z,61.03
2023-04-26T21:06:02.999Z,61.34
2023-04-26T21:08:29.429Z,61.59
2023-04-26T21:10:55.957Z,62.28
2023-04-26T21:13:23.722Z,62.14
2023-04-26T21:15:50.226Z,62.15
2023-04-26T21:18:16.712Z,63.08
2023-04-26T21:20:43.183Z,63.12
2023-04-26T21:23:09.700Z,63.51
2023-04-26T21:25:36.859Z,63.24
2023-04-26T21:28:03.345Z,62.83
2023-04-26T21:30:29.873Z,63.59
2023-04-26T21:32:56.419Z,62.95
2023-04-26T21:35:22.970Z,63.43
2023-04-26T21:37:49.410Z,64.08
2023-04-26T21:40:15.939Z,63.66
2023-04-26T21:42:46.596Z,64.49
2023-04-26T21:45:17.956Z,64.30
2023-04-26T21:47:44.403Z,65.52
2023-04-26T21:50:10.958Z,65.11
2023-04-26T21:52:37.477Z,65.07
2023-04-26T21:55:04.230Z,65.70
2023-04-26T21:57:30.828Z,64.92
2023-04-26T21:59:57.319Z,65.44
2023-04-26T22:02:24.374Z,64.91
2023-04-26T22:04:50.976Z,66.10
2023-04-26T22:07:17.501Z,65.88
2023-04-26T22:09:43.928Z,66.28
2023-04-26T22:12:10.448Z,66.28
2023-04-26T22:14:36.972Z,65.73
2023-04-26T22:17:03.787Z,66.44
2023-04-26T22:19:30.760Z,67.00
2023-04-26T22:21:57.288Z,67.27
2023-04-26T22:24:23.819Z,66.95
2023-04-26T22:26:50.234Z,67.08
2023-04-26T22:29:16.708Z,66.38
2023-04-26T22:31:43.198Z,67.18
2023-04-26T22:34:09.737Z,67.24
2023-04-26T22:36:36.308Z,67.13
2023-04-26T22:39:02.759Z,67.64
2023-04-26T22:41:29.192Z,67.65
2023-04-26T22:43:55.747Z,67.13
2023-04-26T22:46:22.242Z,67.78
2023-04-26T22:48:48.669Z,68.10
2023-04-26T22:51:15.390Z,68.18
2023-04-26T22:53:41.812Z,68.67
2023-04-26T22:56:08.390Z,68.65
2023-04-26T22:58:34.820Z,68.41
2023-04-26T23:01:01.298Z,67.85
2023-04-26T23:03:27.919Z,68.27
2023-04-26T23:05:54.640Z,68.44
2023-04-26T23:08:21.412Z,68.56
2023-04-26T23:10:47.859Z,69.12
2023-04-26T23:13:14.714Z,68.67
2023-04-26T23:15:42.015Z,68.71
2023-04-26T23:18:08.472Z,70.54
2023-04-26T23:20:34.959Z,70.65
2023-04-26T23:23:01.616Z,70.39
2023-04-26T23:25:28.041Z,70.34
2023-04-26T23:27:54.572Z,70.93
2023-04-26T23:30:21.239Z,70.88
2023-04-26T23:32:47.821Z,71.05
2023-04-26T23:35:14.333Z,70.79
2023-04-26T23:37:40.981Z,71.57
2023-04-26T23:40:09.375Z,71.16
2023-04-26T23:42:36.683Z,71.11
2023-04-26T23:45:03.837Z,71.33
2023-04-26T23:47:30.968Z,72.08
2023-04-26T23:49:57.499Z,72.01
2023-04-26T23:52:23.924Z,72.66
2023-04-26T23:54:50.484Z,71.98
2023-04-26T23:57:16.924Z,72.52
2023-04-26T23:59:43.337Z,72.53
